sensor_id;sensor_type;location;lat;lon;timestamp;P1;durP1;ratioP1;P2;durP2;ratioP2
27201;SDS011;14717;46.924;15.474;2024-03-07T00:02:19;19.80;;;10.73;;
27201;SDS011;14717;46.924;15.474;2024-03-07T00:04:45;21.98;;;10.65;;
27201;SDS011;14717;46.924;15.474;2024-03-07T00:07:10;21.08;;;10.23;;
27201;SDS011;14717;46.924;15.474;2024-03-07T00:09:36;22.63;;;10.70;;
27201;SDS011;14717;46.924;15.474;2024-03-07T00:12:02;18.40;;;9.60;;
27201;SDS011;14717;46.924;15.474;2024-03-07T00:14:27;21.88;;;9.82;;
27201;SDS011;14717;46.924;15.474;2024-03-07T00:16:53;20.60;;;9.88;;
27201;SDS011;14717;46.924;15.474;2024-03-07T00:19:20;20.35;;;8.95;;
27201;SDS011;14717;46.924;15.474;2024-03-07T00:21:46;17.75;;;8.68;;
27201;SDS011;14717;46.924;15.474;2024-03-07T00:24:12;13.07;;;6.75;;
27201;SDS011;14717;46.924;15.474;2024-03-07T00:26:38;14.43;;;5.60;;
27201;SDS011;14717;46.924;15.474;2024-03-07T00:29:05;12.50;;;6.32;;
27201;SDS011;14717;46.924;15.474;2024-03-07T00:33:57;14.00;;;6.10;;
27201;SDS011;14717;46.924;15.474;2024-03-07T00:36:22;14.35;;;6.32;;
27201;SDS011;14717;46.924;15.474;2024-03-07T00:38:47;9.93;;;5.68;;
27201;SDS011;14717;46.924;15.474;2024-03-07T00:41:13;14.65;;;6.70;;
27201;SDS011;14717;46.924;15.474;2024-03-07T00:43:39;11.40;;;5.85;;
27201;SDS011;14717;46.924;15.474;2024-03-07T00:46:04;13.10;;;6.03;;
27201;SDS011;14717;46.924;15.474;2024-03-07T00:48:31;15.32;;;7.00;;
27201;SDS011;14717;46.924;15.474;2024-03-07T00:50:57;14.85;;;7.18;;
27201;SDS011;14717;46.924;15.474;2024-03-07T00:53:22;18.15;;;8.95;;
27201;SDS011;14717;46.924;15.474;2024-03-07T00:55:47;16.73;;;8.60;;
27201;SDS011;14717;46.924;15.474;2024-03-07T00:58:13;16.83;;;7.57;;
27201;SDS011;14717;46.924;15.474;2024-03-07T01:00:38;18.70;;;9.02;;
27201;SDS011;14717;46.924;15.474;2024-03-07T01:03:07;16.85;;;7.70;;
27201;SDS011;14717;46.924;15.474;2024-03-07T01:05:36;16.98;;;8.00;;
27201;SDS011;14717;46.924;15.474;2024-03-07T01:08:01;14.48;;;7.47;;
27201;SDS011;14717;46.924;15.474;2024-03-07T01:10:27;17.35;;;9.25;;
27201;SDS011;14717;46.924;15.474;2024-03-07T01:12:53;14.80;;;7.80;;
27201;SDS011;14717;46.924;15.474;2024-03-07T01:15:22;15.90;;;7.32;;
27201;SDS011;14717;46.924;15.474;2024-03-07T01:17:48;19.38;;;8.23;;
27201;SDS011;14717;46.924;15.474;2024-03-07T01:20:13;16.33;;;7.50;;
27201;SDS011;14717;46.924;15.474;2024-03-07T01:22:39;14.73;;;7.03;;
27201;SDS011;14717;46.924;15.474;2024-03-07T01:25:04;14.90;;;7.22;;
27201;SDS011;14717;46.924;15.474;2024-03-07T01:27:31;16.25;;;7.30;;
27201;SDS011;14717;46.924;15.474;2024-03-07T01:29:57;14.35;;;6.55;;
27201;SDS011;14717;46.924;15.474;2024-03-07T01:32:22;14.52;;;7.03;;
27201;SDS011;14717;46.924;15.474;2024-03-07T01:34:47;16.52;;;7.22;;
27201;SDS011;14717;46.924;15.474;2024-03-07T01:37:13;15.82;;;7.20;;
27201;SDS011;14717;46.924;15.474;2024-03-07T01:39:38;15.38;;;7.43;;
27201;SDS011;14717;46.924;15.474;2024-03-07T01:42:03;14.57;;;7.50;;
27201;SDS011;14717;46.924;15.474;2024-03-07T01:44:29;14.13;;;7.20;;
27201;SDS011;14717;46.924;15.474;2024-03-07T01:46:56;15.18;;;7.55;;
27201;SDS011;14717;46.924;15.474;2024-03-07T01:49:22;14.95;;;6.97;;
27201;SDS011;14717;46.924;15.474;2024-03-07T01:51:48;14.70;;;7.10;;
27201;SDS011;14717;46.924;15.474;2024-03-07T01:54:13;13.65;;;6.82;;
27201;SDS011;14717;46.924;15.474;2024-03-07T01:56:39;11.68;;;6.45;;
27201;SDS011;14717;46.924;15.474;2024-03-07T01:59:05;13.65;;;6.93;;
27201;SDS011;14717;46.924;15.474;2024-03-07T02:01:32;14.18;;;7.03;;
27201;SDS011;14717;46.924;15.474;2024-03-07T02:03:58;13.32;;;6.68;;
27201;SDS011;14717;46.924;15.474;2024-03-07T02:06:24;15.35;;;7.28;;
27201;SDS011;14717;46.924;15.474;2024-03-07T02:08:50;14.13;;;7.30;;
27201;SDS011;14717;46.924;15.474;2024-03-07T02:11:16;12.68;;;6.53;;
27201;SDS011;14717;46.924;15.474;2024-03-07T02:13:41;16.10;;;7.53;;
27201;SDS011;14717;46.924;15.474;2024-03-07T02:16:07;14.10;;;6.78;;
27201;SDS011;14717;46.924;15.474;2024-03-07T02:18:33;15.98;;;6.53;;
27201;SDS011;14717;46.924;15.474;2024-03-07T02:21:00;12.88;;;6.28;;
27201;SDS011;14717;46.924;15.474;2024-03-07T02:23:25;11.85;;;5.90;;
27201;SDS011;14717;46.924;15.474;2024-03-07T02:25:52;12.30;;;5.85;;
27201;SDS011;14717;46.924;15.474;2024-03-07T02:28:18;12.70;;;5.47;;
27201;SDS011;14717;46.924;15.474;2024-03-07T02:30:43;11.25;;;5.75;;
27201;SDS011;14717;46.924;15.474;2024-03-07T02:33:10;11.15;;;5.75;;
27201;SDS011;14717;46.924;15.474;2024-03-07T02:35:37;10.68;;;5.22;;
27201;SDS011;14717;46.924;15.474;2024-03-07T02:38:03;10.73;;;5.13;;
27201;SDS011;14717;46.924;15.474;2024-03-07T02:40:29;10.07;;;4.80;;
27201;SDS011;14717;46.924;15.474;2024-03-07T02:42:54;10.93;;;5.00;;
27201;SDS011;14717;46.924;15.474;2024-03-07T02:45:20;10.95;;;5.15;;
27201;SDS011;14717;46.924;15.474;2024-03-07T02:47:46;10.48;;;5.15;;
27201;SDS011;14717;46.924;15.474;2024-03-07T02:50:11;13.20;;;5.75;;
27201;SDS011;14717;46.924;15.474;2024-03-07T02:52:36;11.48;;;5.15;;
27201;SDS011;14717;46.924;15.474;2024-03-07T02:55:02;11.35;;;5.35;;
27201;SDS011;14717;46.924;15.474;2024-03-07T02:57:29;12.20;;;5.43;;
27201;SDS011;14717;46.924;15.474;2024-03-07T02:59:55;13.73;;;6.20;;
27201;SDS011;14717;46.924;15.474;2024-03-07T03:02:21;18.95;;;6.63;;
27201;SDS011;14717;46.924;15.474;2024-03-07T03:04:47;16.63;;;6.03;;
27201;SDS011;14717;46.924;15.474;2024-03-07T03:07:12;13.63;;;6.22;;
27201;SDS011;14717;46.924;15.474;2024-03-07T03:09:38;15.30;;;6.75;;
27201;SDS011;14717;46.924;15.474;2024-03-07T03:12:08;12.85;;;6.03;;
27201;SDS011;14717;46.924;15.474;2024-03-07T03:14:36;12.45;;;6.25;;
27201;SDS011;14717;46.924;15.474;2024-03-07T03:17:02;14.32;;;6.85;;
27201;SDS011;14717;46.924;15.474;2024-03-07T03:19:28;11.77;;;5.78;;
27201;SDS011;14717;46.924;15.474;2024-03-07T03:21:53;14.60;;;6.13;;
27201;SDS011;14717;46.924;15.474;2024-03-07T03:24:20;11.80;;;5.85;;
27201;SDS011;14717;46.924;15.474;2024-03-07T03:26:48;12.63;;;5.55;;
27201;SDS011;14717;46.924;15.474;2024-03-07T03:29:14;13.73;;;6.00;;
27201;SDS011;14717;46.924;15.474;2024-03-07T03:31:42;12.48;;;6.00;;
27201;SDS011;14717;46.924;15.474;2024-03-07T03:34:07;13.93;;;6.30;;
27201;SDS011;14717;46.924;15.474;2024-03-07T03:36:34;12.45;;;5.43;;
27201;SDS011;14717;46.924;15.474;2024-03-07T03:39:00;14.15;;;6.65;;
27201;SDS011;14717;46.924;15.474;2024-03-07T03:41:26;14.05;;;5.95;;
27201;SDS011;14717;46.924;15.474;2024-03-07T03:43:52;10.98;;;5.43;;
27201;SDS011;14717;46.924;15.474;2024-03-07T03:46:18;15.02;;;6.45;;
27201;SDS011;14717;46.924;15.474;2024-03-07T03:48:43;14.38;;;5.70;;
27201;SDS011;14717;46.924;15.474;2024-03-07T03:51:09;12.30;;;5.70;;
27201;SDS011;14717;46.924;15.474;2024-03-07T03:53:35;13.70;;;5.97;;
27201;SDS011;14717;46.924;15.474;2024-03-07T03:56:01;10.95;;;5.85;;
27201;SDS011;14717;46.924;15.474;2024-03-07T03:58:29;12.27;;;5.82;;
27201;SDS011;14717;46.924;15.474;2024-03-07T04:00:55;13.25;;;5.95;;
27201;SDS011;14717;46.924;15.474;2024-03-07T04:03:21;11.32;;;5.70;;
27201;SDS011;14717;46.924;15.474;2024-03-07T04:05:46;11.90;;;5.50;;
27201;SDS011;14717;46.924;15.474;2024-03-07T04:08:12;11.93;;;5.90;;
27201;SDS011;14717;46.924;15.474;2024-03-07T04:10:37;12.32;;;5.95;;
27201;SDS011;14717;46.924;15.474;2024-03-07T04:13:03;15.55;;;6.38;;
27201;SDS011;14717;46.924;15.474;2024-03-07T04:15:28;12.52;;;5.90;;
27201;SDS011;14717;46.924;15.474;2024-03-07T04:17:56;13.10;;;6.55;;
27201;SDS011;14717;46.924;15.474;2024-03-07T04:20:22;11.05;;;5.60;;
27201;SDS011;14717;46.924;15.474;2024-03-07T04:22:47;16.45;;;6.93;;
27201;SDS011;14717;46.924;15.474;2024-03-07T04:25:14;12.73;;;6.25;;
27201;SDS011;14717;46.924;15.474;2024-03-07T04:27:39;12.60;;;6.55;;
27201;SDS011;14717;46.924;15.474;2024-03-07T04:30:05;16.58;;;6.90;;
27201;SDS011;14717;46.924;15.474;2024-03-07T04:32:32;15.38;;;6.82;;
27201;SDS011;14717;46.924;15.474;2024-03-07T04:34:59;12.70;;;6.15;;
27201;SDS011;14717;46.924;15.474;2024-03-07T04:37:25;13.30;;;6.32;;
27201;SDS011;14717;46.924;15.474;2024-03-07T04:39:52;12.30;;;6.85;;
27201;SDS011;14717;46.924;15.474;2024-03-07T04:42:18;13.18;;;6.68;;
27201;SDS011;14717;46.924;15.474;2024-03-07T04:44:43;14.68;;;6.65;;
27201;SDS011;14717;46.924;15.474;2024-03-07T04:47:09;15.70;;;6.82;;
27201;SDS011;14717;46.924;15.474;2024-03-07T04:49:34;13.18;;;5.97;;
27201;SDS011;14717;46.924;15.474;2024-03-07T04:52:00;12.38;;;6.43;;
27201;SDS011;14717;46.924;15.474;2024-03-07T04:54:27;12.45;;;6.25;;
27201;SDS011;14717;46.924;15.474;2024-03-07T04:56:53;11.23;;;5.97;;
27201;SDS011;14717;46.924;15.474;2024-03-07T04:59:19;13.82;;;6.55;;
27201;SDS011;14717;46.924;15.474;2024-03-07T05:01:47;14.32;;;6.68;;
27201;SDS011;14717;46.924;15.474;2024-03-07T05:04:15;14.32;;;6.43;;
27201;SDS011;14717;46.924;15.474;2024-03-07T05:06:41;16.10;;;6.28;;
27201;SDS011;14717;46.924;15.474;2024-03-07T05:09:08;18.13;;;7.03;;
27201;SDS011;14717;46.924;15.474;2024-03-07T05:11:35;13.82;;;6.55;;
27201;SDS011;14717;46.924;15.474;2024-03-07T05:14:01;11.88;;;6.88;;
27201;SDS011;14717;46.924;15.474;2024-03-07T05:16:28;14.60;;;6.78;;
27201;SDS011;14717;46.924;15.474;2024-03-07T05:18:55;17.38;;;6.53;;
27201;SDS011;14717;46.924;15.474;2024-03-07T05:21:24;11.77;;;6.18;;
27201;SDS011;14717;46.924;15.474;2024-03-07T05:24:13;15.57;;;6.05;;
27201;SDS011;14717;46.924;15.474;2024-03-07T05:26:38;10.75;;;5.97;;
27201;SDS011;14717;46.924;15.474;2024-03-07T05:29:06;16.15;;;6.43;;
27201;SDS011;14717;46.924;15.474;2024-03-07T05:31:36;12.85;;;6.30;;
27201;SDS011;14717;46.924;15.474;2024-03-07T05:34:06;16.42;;;7.15;;
27201;SDS011;14717;46.924;15.474;2024-03-07T05:36:37;13.90;;;6.35;;
27201;SDS011;14717;46.924;15.474;2024-03-07T05:39:12;14.68;;;7.18;;
27201;SDS011;14717;46.924;15.474;2024-03-07T05:41:38;16.27;;;6.97;;
27201;SDS011;14717;46.924;15.474;2024-03-07T05:44:05;15.18;;;6.68;;
27201;SDS011;14717;46.924;15.474;2024-03-07T05:46:34;17.33;;;6.57;;
27201;SDS011;14717;46.924;15.474;2024-03-07T05:49:10;15.73;;;6.75;;
27201;SDS011;14717;46.924;15.474;2024-03-07T05:51:36;15.25;;;7.13;;
27201;SDS011;14717;46.924;15.474;2024-03-07T05:54:01;13.18;;;7.00;;
27201;SDS011;14717;46.924;15.474;2024-03-07T05:56:31;15.50;;;6.85;;
27201;SDS011;14717;46.924;15.474;2024-03-07T05:59:03;16.33;;;7.50;;
27201;SDS011;14717;46.924;15.474;2024-03-07T06:01:34;18.58;;;7.95;;
27201;SDS011;14717;46.924;15.474;2024-03-07T06:04:01;16.40;;;7.22;;
27201;SDS011;14717;46.924;15.474;2024-03-07T06:06:27;15.45;;;7.25;;
27201;SDS011;14717;46.924;15.474;2024-03-07T06:08:56;15.35;;;7.55;;
27201;SDS011;14717;46.924;15.474;2024-03-07T06:11:22;18.13;;;7.80;;
27201;SDS011;14717;46.924;15.474;2024-03-07T06:13:48;14.40;;;7.25;;
27201;SDS011;14717;46.924;15.474;2024-03-07T06:16:13;16.25;;;7.47;;
27201;SDS011;14717;46.924;15.474;2024-03-07T06:18:42;20.67;;;8.77;;
27201;SDS011;14717;46.924;15.474;2024-03-07T06:21:08;18.67;;;9.35;;
27201;SDS011;14717;46.924;15.474;2024-03-07T06:23:34;23.17;;;9.60;;
27201;SDS011;14717;46.924;15.474;2024-03-07T06:25:59;20.77;;;9.02;;
27201;SDS011;14717;46.924;15.474;2024-03-07T06:28:25;19.33;;;8.68;;
27201;SDS011;14717;46.924;15.474;2024-03-07T06:30:53;17.60;;;7.82;;
27201;SDS011;14717;46.924;15.474;2024-03-07T06:33:19;14.85;;;7.18;;
27201;SDS011;14717;46.924;15.474;2024-03-07T06:35:46;14.25;;;6.88;;
27201;SDS011;14717;46.924;15.474;2024-03-07T06:38:11;15.70;;;6.95;;
27201;SDS011;14717;46.924;15.474;2024-03-07T06:40:37;17.15;;;7.22;;
27201;SDS011;14717;46.924;15.474;2024-03-07T06:43:05;14.18;;;6.75;;
27201;SDS011;14717;46.924;15.474;2024-03-07T06:45:35;16.38;;;7.45;;
27201;SDS011;14717;46.924;15.474;2024-03-07T06:48:02;14.93;;;6.88;;
27201;SDS011;14717;46.924;15.474;2024-03-07T06:50:29;16.33;;;8.13;;
27201;SDS011;14717;46.924;15.474;2024-03-07T06:52:55;18.75;;;7.47;;
27201;SDS011;14717;46.924;15.474;2024-03-07T06:55:21;19.70;;;7.05;;
27201;SDS011;14717;46.924;15.474;2024-03-07T06:57:46;11.80;;;6.32;;
27201;SDS011;14717;46.924;15.474;2024-03-07T07:00:12;13.65;;;6.68;;
27201;SDS011;14717;46.924;15.474;2024-03-07T07:02:39;19.00;;;7.88;;
27201;SDS011;14717;46.924;15.474;2024-03-07T07:05:08;13.10;;;6.63;;
27201;SDS011;14717;46.924;15.474;2024-03-07T07:07:39;15.77;;;6.72;;
27201;SDS011;14717;46.924;15.474;2024-03-07T07:10:07;12.50;;;6.47;;
27201;SDS011;14717;46.924;15.474;2024-03-07T07:12:36;14.75;;;6.65;;
27201;SDS011;14717;46.924;15.474;2024-03-07T07:15:02;12.82;;;6.95;;
27201;SDS011;14717;46.924;15.474;2024-03-07T07:17:28;16.25;;;5.72;;
27201;SDS011;14717;46.924;15.474;2024-03-07T07:19:54;12.30;;;6.63;;
27201;SDS011;14717;46.924;15.474;2024-03-07T07:22:21;14.05;;;6.28;;
27201;SDS011;14717;46.924;15.474;2024-03-07T07:24:46;15.63;;;6.03;;
27201;SDS011;14717;46.924;15.474;2024-03-07T07:27:12;13.65;;;6.65;;
27201;SDS011;14717;46.924;15.474;2024-03-07T07:29:37;13.77;;;6.82;;
27201;SDS011;14717;46.924;15.474;2024-03-07T07:32:03;12.75;;;6.53;;
27201;SDS011;14717;46.924;15.474;2024-03-07T07:34:28;12.00;;;6.10;;
27201;SDS011;14717;46.924;15.474;2024-03-07T07:36:55;13.35;;;6.80;;
27201;SDS011;14717;46.924;15.474;2024-03-07T07:39:20;12.55;;;6.30;;
27201;SDS011;14717;46.924;15.474;2024-03-07T07:41:46;13.82;;;6.53;;
27201;SDS011;14717;46.924;15.474;2024-03-07T07:44:11;17.25;;;7.32;;
27201;SDS011;14717;46.924;15.474;2024-03-07T07:46:37;14.30;;;7.18;;
27201;SDS011;14717;46.924;15.474;2024-03-07T07:49:02;14.98;;;7.15;;
27201;SDS011;14717;46.924;15.474;2024-03-07T07:51:28;13.73;;;7.20;;
27201;SDS011;14717;46.924;15.474;2024-03-07T07:53:53;14.75;;;7.30;;
27201;SDS011;14717;46.924;15.474;2024-03-07T07:56:21;16.27;;;7.80;;
27201;SDS011;14717;46.924;15.474;2024-03-07T07:58:47;13.93;;;7.70;;
27201;SDS011;14717;46.924;15.474;2024-03-07T08:03:40;17.95;;;7.32;;
27201;SDS011;14717;46.924;15.474;2024-03-07T08:06:06;12.68;;;6.68;;
27201;SDS011;14717;46.924;15.474;2024-03-07T08:08:31;14.80;;;7.50;;
27201;SDS011;14717;46.924;15.474;2024-03-07T08:10:57;18.83;;;8.55;;
27201;SDS011;14717;46.924;15.474;2024-03-07T08:13:24;15.93;;;6.88;;
27201;SDS011;14717;46.924;15.474;2024-03-07T08:15:50;15.15;;;8.38;;
27201;SDS011;14717;46.924;15.474;2024-03-07T08:18:15;16.77;;;7.85;;
27201;SDS011;14717;46.924;15.474;2024-03-07T08:20:42;15.10;;;7.80;;
27201;SDS011;14717;46.924;15.474;2024-03-07T08:23:08;18.70;;;8.32;;
27201;SDS011;14717;46.924;15.474;2024-03-07T08:25:34;15.65;;;8.30;;
27201;SDS011;14717;46.924;15.474;2024-03-07T08:27:59;16.30;;;7.85;;
27201;SDS011;14717;46.924;15.474;2024-03-07T08:30:25;14.20;;;6.63;;
27201;SDS011;14717;46.924;15.474;2024-03-07T08:32:53;17.85;;;7.90;;
27201;SDS011;14717;46.924;15.474;2024-03-07T08:35:20;17.00;;;7.55;;
27201;SDS011;14717;46.924;15.474;2024-03-07T08:37:47;20.42;;;7.78;;
27201;SDS011;14717;46.924;15.474;2024-03-07T08:40:17;15.32;;;8.15;;
27201;SDS011;14717;46.924;15.474;2024-03-07T08:42:50;13.40;;;6.95;;
27201;SDS011;14717;46.924;15.474;2024-03-07T08:45:16;16.17;;;7.65;;
27201;SDS011;14717;46.924;15.474;2024-03-07T08:47:44;13.60;;;7.63;;
27201;SDS011;14717;46.924;15.474;2024-03-07T08:50:10;13.82;;;7.03;;
27201;SDS011;14717;46.924;15.474;2024-03-07T08:52:38;17.00;;;7.78;;
27201;SDS011;14717;46.924;15.474;2024-03-07T08:55:05;14.38;;;6.65;;
27201;SDS011;14717;46.924;15.474;2024-03-07T08:57:31;12.98;;;6.70;;
27201;SDS011;14717;46.924;15.474;2024-03-07T08:59:56;12.75;;;5.95;;
27201;SDS011;14717;46.924;15.474;2024-03-07T09:02:22;12.25;;;5.97;;
27201;SDS011;14717;46.924;15.474;2024-03-07T09:04:47;14.25;;;6.80;;
27201;SDS011;14717;46.924;15.474;2024-03-07T09:07:13;11.82;;;6.70;;
27201;SDS011;14717;46.924;15.474;2024-03-07T09:09:42;16.15;;;7.00;;
27201;SDS011;14717;46.924;15.474;2024-03-07T09:12:10;13.85;;;6.90;;
27201;SDS011;14717;46.924;15.474;2024-03-07T09:14:36;14.18;;;7.00;;
27201;SDS011;14717;46.924;15.474;2024-03-07T09:17:02;14.07;;;7.03;;
27201;SDS011;14717;46.924;15.474;2024-03-07T09:19:29;15.38;;;7.47;;
27201;SDS011;14717;46.924;15.474;2024-03-07T09:21:55;13.70;;;6.70;;
27201;SDS011;14717;46.924;15.474;2024-03-07T09:24:21;10.43;;;6.38;;
27201;SDS011;14717;46.924;15.474;2024-03-07T09:26:47;9.80;;;5.53;;
27201;SDS011;14717;46.924;15.474;2024-03-07T09:29:16;13.60;;;6.28;;
27201;SDS011;14717;46.924;15.474;2024-03-07T09:31:43;13.20;;;6.57;;
27201;SDS011;14717;46.924;15.474;2024-03-07T09:34:09;11.15;;;5.60;;
27201;SDS011;14717;46.924;15.474;2024-03-07T09:36:34;10.82;;;5.93;;
27201;SDS011;14717;46.924;15.474;2024-03-07T09:38:59;11.52;;;5.63;;
27201;SDS011;14717;46.924;15.474;2024-03-07T09:41:25;10.48;;;5.18;;
27201;SDS011;14717;46.924;15.474;2024-03-07T09:43:51;10.15;;;5.53;;
27201;SDS011;14717;46.924;15.474;2024-03-07T09:46:23;11.13;;;5.30;;
27201;SDS011;14717;46.924;15.474;2024-03-07T09:48:49;8.80;;;4.47;;
27201;SDS011;14717;46.924;15.474;2024-03-07T09:51:18;9.43;;;5.13;;
27201;SDS011;14717;46.924;15.474;2024-03-07T09:53:45;13.18;;;5.68;;
27201;SDS011;14717;46.924;15.474;2024-03-07T09:56:14;12.10;;;5.05;;
27201;SDS011;14717;46.924;15.474;2024-03-07T09:58:45;11.77;;;5.47;;
27201;SDS011;14717;46.924;15.474;2024-03-07T10:01:14;11.40;;;5.88;;
27201;SDS011;14717;46.924;15.474;2024-03-07T10:06:09;9.20;;;3.72;;
27201;SDS011;14717;46.924;15.474;2024-03-07T10:08:35;8.18;;;3.92;;
27201;SDS011;14717;46.924;15.474;2024-03-07T10:11:02;9.32;;;4.35;;
27201;SDS011;14717;46.924;15.474;2024-03-07T10:13:27;8.95;;;3.97;;
27201;SDS011;14717;46.924;15.474;2024-03-07T10:15:53;7.80;;;4.55;;
27201;SDS011;14717;46.924;15.474;2024-03-07T10:18:24;8.85;;;3.75;;
27201;SDS011;14717;46.924;15.474;2024-03-07T10:20:53;6.32;;;3.53;;
27201;SDS011;14717;46.924;15.474;2024-03-07T10:23:19;8.30;;;3.92;;
27201;SDS011;14717;46.924;15.474;2024-03-07T10:25:46;7.22;;;4.10;;
27201;SDS011;14717;46.924;15.474;2024-03-07T10:28:12;7.22;;;3.80;;
27201;SDS011;14717;46.924;15.474;2024-03-07T10:30:40;6.53;;;3.50;;
27201;SDS011;14717;46.924;15.474;2024-03-07T10:33:16;6.50;;;3.30;;
27201;SDS011;14717;46.924;15.474;2024-03-07T10:38:07;4.80;;;2.78;;
27201;SDS011;14717;46.924;15.474;2024-03-07T10:40:36;5.45;;;3.15;;
27201;SDS011;14717;46.924;15.474;2024-03-07T10:43:05;7.32;;;3.17;;
27201;SDS011;14717;46.924;15.474;2024-03-07T10:45:35;6.70;;;2.83;;
27201;SDS011;14717;46.924;15.474;2024-03-07T10:48:07;6.13;;;2.80;;
27201;SDS011;14717;46.924;15.474;2024-03-07T10:55:45;5.07;;;3.17;;
27201;SDS011;14717;46.924;15.474;2024-03-07T11:00:49;8.02;;;3.58;;
27201;SDS011;14717;46.924;15.474;2024-03-07T11:03:18;4.85;;;3.17;;
27201;SDS011;14717;46.924;15.474;2024-03-07T11:05:45;6.43;;;3.40;;
27201;SDS011;14717;46.924;15.474;2024-03-07T11:08:11;6.70;;;3.33;;
27201;SDS011;14717;46.924;15.474;2024-03-07T11:13:03;7.70;;;3.40;;
27201;SDS011;14717;46.924;15.474;2024-03-07T11:15:31;6.03;;;2.80;;
27201;SDS011;14717;46.924;15.474;2024-03-07T11:17:58;5.00;;;2.90;;
27201;SDS011;14717;46.924;15.474;2024-03-07T11:20:25;5.75;;;3.10;;
27201;SDS011;14717;46.924;15.474;2024-03-07T11:22:51;6.78;;;3.28;;
27201;SDS011;14717;46.924;15.474;2024-03-07T11:25:20;6.22;;;3.15;;
27201;SDS011;14717;46.924;15.474;2024-03-07T11:27:54;6.32;;;2.83;;
27201;SDS011;14717;46.924;15.474;2024-03-07T11:30:21;6.50;;;2.67;;
27201;SDS011;14717;46.924;15.474;2024-03-07T11:35:15;3.92;;;2.38;;
27201;SDS011;14717;46.924;15.474;2024-03-07T11:42:51;6.05;;;2.60;;
27201;SDS011;14717;46.924;15.474;2024-03-07T11:45:19;5.28;;;2.53;;
27201;SDS011;14717;46.924;15.474;2024-03-07T11:47:52;4.70;;;2.40;;
27201;SDS011;14717;46.924;15.474;2024-03-07T11:50:28;5.75;;;2.22;;
27201;SDS011;14717;46.924;15.474;2024-03-07T11:52:54;4.45;;;2.40;;
27201;SDS011;14717;46.924;15.474;2024-03-07T11:55:23;4.82;;;2.50;;
27201;SDS011;14717;46.924;15.474;2024-03-07T11:57:49;3.08;;;1.90;;
27201;SDS011;14717;46.924;15.474;2024-03-07T12:00:18;4.93;;;2.33;;
27201;SDS011;14717;46.924;15.474;2024-03-07T12:02:45;4.80;;;2.97;;
27201;SDS011;14717;46.924;15.474;2024-03-07T12:05:12;7.30;;;3.55;;
27201;SDS011;14717;46.924;15.474;2024-03-07T12:07:41;6.97;;;3.30;;
27201;SDS011;14717;46.924;15.474;2024-03-07T12:10:06;6.53;;;3.20;;
27201;SDS011;14717;46.924;15.474;2024-03-07T12:14:58;5.22;;;2.75;;
27201;SDS011;14717;46.924;15.474;2024-03-07T12:17:23;6.07;;;3.15;;
27201;SDS011;14717;46.924;15.474;2024-03-07T12:19:50;6.88;;;3.40;;
27201;SDS011;14717;46.924;15.474;2024-03-07T12:22:19;6.38;;;3.00;;
27201;SDS011;14717;46.924;15.474;2024-03-07T12:25:00;6.43;;;3.25;;
27201;SDS011;14717;46.924;15.474;2024-03-07T12:27:33;7.70;;;3.45;;
27201;SDS011;14717;46.924;15.474;2024-03-07T12:29:58;5.60;;;3.00;;
27201;SDS011;14717;46.924;15.474;2024-03-07T12:32:27;6.13;;;3.42;;
27201;SDS011;14717;46.924;15.474;2024-03-07T12:34:52;8.13;;;3.80;;
27201;SDS011;14717;46.924;15.474;2024-03-07T12:37:18;6.85;;;3.17;;
27201;SDS011;14717;46.924;15.474;2024-03-07T12:39:44;3.83;;;2.38;;
27201;SDS011;14717;46.924;15.474;2024-03-07T12:42:13;5.50;;;3.38;;
27201;SDS011;14717;46.924;15.474;2024-03-07T12:44:42;5.30;;;2.80;;
27201;SDS011;14717;46.924;15.474;2024-03-07T12:47:11;5.72;;;2.47;;
27201;SDS011;14717;46.924;15.474;2024-03-07T12:49:41;4.50;;;2.35;;
27201;SDS011;14717;46.924;15.474;2024-03-07T12:52:07;4.00;;;2.50;;
27201;SDS011;14717;46.924;15.474;2024-03-07T12:54:36;3.95;;;2.70;;
27201;SDS011;14717;46.924;15.474;2024-03-07T12:57:08;6.22;;;2.65;;
27201;SDS011;14717;46.924;15.474;2024-03-07T12:59:34;5.55;;;2.75;;
27201;SDS011;14717;46.924;15.474;2024-03-07T13:02:02;5.28;;;2.70;;
27201;SDS011;14717;46.924;15.474;2024-03-07T13:04:31;4.75;;;2.70;;
27201;SDS011;14717;46.924;15.474;2024-03-07T13:06:57;4.45;;;2.55;;
27201;SDS011;14717;46.924;15.474;2024-03-07T13:09:25;4.90;;;2.60;;
27201;SDS011;14717;46.924;15.474;2024-03-07T13:11:52;5.55;;;2.53;;
27201;SDS011;14717;46.924;15.474;2024-03-07T13:14:18;5.55;;;2.70;;
27201;SDS011;14717;46.924;15.474;2024-03-07T13:16:44;5.88;;;2.97;;
27201;SDS011;14717;46.924;15.474;2024-03-07T13:19:10;5.40;;;2.60;;
27201;SDS011;14717;46.924;15.474;2024-03-07T13:21:37;4.63;;;2.42;;
27201;SDS011;14717;46.924;15.474;2024-03-07T13:24:04;5.43;;;2.63;;
27201;SDS011;14717;46.924;15.474;2024-03-07T13:26:30;5.10;;;2.80;;
27201;SDS011;14717;46.924;15.474;2024-03-07T13:28:57;4.55;;;2.50;;
27201;SDS011;14717;46.924;15.474;2024-03-07T13:31:26;4.72;;;2.53;;
27201;SDS011;14717;46.924;15.474;2024-03-07T13:33:53;5.60;;;2.85;;
27201;SDS011;14717;46.924;15.474;2024-03-07T13:38:57;5.43;;;2.55;;
27201;SDS011;14717;46.924;15.474;2024-03-07T13:41:23;4.35;;;2.55;;
27201;SDS011;14717;46.924;15.474;2024-03-07T13:43:50;5.70;;;3.03;;
27201;SDS011;14717;46.924;15.474;2024-03-07T13:46:16;5.85;;;3.00;;
27201;SDS011;14717;46.924;15.474;2024-03-07T13:48:43;7.70;;;2.50;;
27201;SDS011;14717;46.924;15.474;2024-03-07T13:51:11;4.30;;;2.40;;
27201;SDS011;14717;46.924;15.474;2024-03-07T13:53:40;4.68;;;2.50;;
27201;SDS011;14717;46.924;15.474;2024-03-07T13:56:42;5.57;;;2.75;;
27201;SDS011;14717;46.924;15.474;2024-03-07T14:02:11;5.03;;;2.65;;
27201;SDS011;14717;46.924;15.474;2024-03-07T14:05:08;5.00;;;2.90;;
27201;SDS011;14717;46.924;15.474;2024-03-07T14:08:21;7.75;;;2.83;;
27201;SDS011;14717;46.924;15.474;2024-03-07T14:31:12;5.13;;;2.60;;
27201;SDS011;14717;46.924;15.474;2024-03-07T14:36:19;7.65;;;2.80;;
27201;SDS011;14717;46.924;15.474;2024-03-07T14:38:47;6.35;;;3.20;;
27201;SDS011;14717;46.924;15.474;2024-03-07T14:41:16;6.20;;;3.38;;
27201;SDS011;14717;46.924;15.474;2024-03-07T14:43:43;5.45;;;2.85;;
27201;SDS011;14717;46.924;15.474;2024-03-07T14:46:09;7.47;;;3.10;;
27201;SDS011;14717;46.924;15.474;2024-03-07T14:48:37;8.00;;;3.55;;
27201;SDS011;14717;46.924;15.474;2024-03-07T14:51:04;6.15;;;2.80;;
27201;SDS011;14717;46.924;15.474;2024-03-07T14:53:32;5.32;;;3.05;;
27201;SDS011;14717;46.924;15.474;2024-03-07T14:55:57;5.32;;;3.10;;
27201;SDS011;14717;46.924;15.474;2024-03-07T14:58:24;7.32;;;3.28;;
27201;SDS011;14717;46.924;15.474;2024-03-07T15:00:50;6.13;;;3.47;;
27201;SDS011;14717;46.924;15.474;2024-03-07T15:03:18;6.35;;;3.20;;
27201;SDS011;14717;46.924;15.474;2024-03-07T15:05:43;6.72;;;3.10;;
27201;SDS011;14717;46.924;15.474;2024-03-07T15:08:10;5.10;;;2.63;;
27201;SDS011;14717;46.924;15.474;2024-03-07T15:10:36;6.05;;;2.55;;
27201;SDS011;14717;46.924;15.474;2024-03-07T15:13:06;5.82;;;2.75;;
27201;SDS011;14717;46.924;15.474;2024-03-07T15:15:33;4.57;;;2.55;;
27201;SDS011;14717;46.924;15.474;2024-03-07T15:17:59;5.97;;;3.10;;
27201;SDS011;14717;46.924;15.474;2024-03-07T15:20:28;5.47;;;2.95;;
27201;SDS011;14717;46.924;15.474;2024-03-07T15:22:58;5.38;;;2.92;;
27201;SDS011;14717;46.924;15.474;2024-03-07T15:25:25;5.20;;;2.70;;